Date,TemperatureHighF,TemperatureAvgF,TemperatureLowF,DewpointHighF,DewpointAvgF,DewpointLowF,HumidityHigh,HumidityAvg,HumidityLow,PressureMaxIn,PressureMinIn,WindSpeedMaxMPH,WindSpeedAvgMPH,GustSpeedMaxMPH,PrecipitationSumIn
2013-8-1,77.0,64.7,59.2,63.8,60.8,58.3,99,88,58,30.16,30.09,1,0,4,0.02
2013-8-2,78.8,66.1,58.8,66.0,61.6,57.8,99,87,59,30.18,30.04,1,0,4,0.13
2013-8-3,76.3,64.0,57.4,62.2,58.6,56.5,98,84,59,30.38,30.18,2,0,4,0.00
2013-8-4,70.2,62.0,55.9,58.1,55.7,50.8,98,81,56,30.47,30.33,2,0,4,0.00
2013-8-5,66.7,61.1,54.0,65.9,58.5,49.6,99,91,71,30.34,30.08,2,0,3,0.01
2013-8-6,77.4,68.1,61.0,71.3,66.1,60.7,99,94,77,30.09,29.95,1,0,4,0.00
2013-8-7,74.3,65.1,57.9,67.5,63.3,57.6,99,94,76,30.25,29.86,2,0,5,0.58
2013-8-8,76.5,63.2,53.8,62.9,57.8,53.3,99,84,59,30.29,30.20,1,0,3,0.01
2013-8-9,79.5,66.5,57.2,65.1,58.8,53.8,95,78,51,30.29,30.16,2,0,4,0.00
2013-8-10,77.7,65.1,58.6,62.0,59.6,55.6,99,84,54,30.38,30.29,2,0,3,0.00
2013-8-11,79.5,66.2,61.0,65.0,61.5,58.8,99,86,53,30.33,30.24,1,0,3,0.00
2013-8-12,74.5,64.0,56.1,68.0,61.5,49.0,99,92,74,30.26,30.12,2,0,6,0.01
2013-8-13,66.2,58.3,54.5,56.4,51.5,46.5,91,79,61,30.39,30.25,2,0,6,0.00
2013-8-14,68.5,59.2,51.8,55.9,52.3,47.8,98,79,57,30.45,30.33,1,0,4,0.00
2013-8-15,79.7,64.1,54.3,61.8,57.2,53.3,99,81,49,30.35,30.28,1,0,4,0.00
2013-8-16,80.8,67.4,59.0,67.1,59.6,53.9,99,79,46,30.42,30.32,2,0,3,0.00
2013-8-17,82.2,69.1,60.1,66.9,58.1,50.3,91,70,48,30.48,30.38,1,0,4,0.00
2013-8-18,80.1,69.0,60.8,66.4,59.9,50.6,92,74,58,30.43,30.29,1,0,4,0.00
2013-8-19,83.7,71.9,63.9,66.2,63.5,59.5,98,77,53,30.30,30.19,2,0,6,0.00
2013-8-20,86.0,74.8,68.4,71.8,67.8,64.1,92,80,62,30.27,30.19,2,0,4,0.00
2013-8-21,87.8,76.4,65.7,76.1,69.8,65.4,99,81,67,30.22,30.07,3,0,8,0.35
2013-8-22,80.1,68.8,60.4,68.6,63.0,55.7,99,84,48,30.38,30.18,2,0,3,0.01
2013-8-23,77.2,66.0,58.8,65.5,60.2,55.2,99,83,59,30.46,30.38,2,0,3,0.00
2013-8-24,80.1,68.7,59.4,67.6,62.3,58.2,99,82,62,30.49,30.36,2,0,4,0.00
2013-8-25,89.4,78.9,69.3,75.5,70.5,62.9,87,76,64,30.37,30.20,3,0,10,0.00
2013-8-26,83.3,75.0,69.3,75.2,71.3,69.0,99,89,76,30.29,30.11,3,0,8,0.24
2013-8-27,75.7,71.1,68.9,75.4,70.7,68.6,99,99,93,30.20,30.05,2,0,4,0.64
2013-8-28,81.7,72.1,68.2,72.6,69.8,67.9,99,93,66,30.28,30.11,1,0,3,0.01
2013-8-29,82.2,73.7,66.9,75.7,70.8,66.6,99,91,75,30.31,30.17,1,0,2,0.00
2013-8-30,78.8,72.1,65.3,75.5,69.4,64.6,99,92,78,30.20,30.01,2,0,5,0.04
2013-8-31,73.8,67.7,63.3,69.2,66.2,63.0,99,95,84,30.14,30.03,1,0,3,0.00